createdAt,value
2018-11-28T00:02:17.922Z,22.03
2018-11-28T00:07:27.486Z,23.47
2018-11-28T00:12:38.145Z,31.30
2018-11-28T00:17:47.526Z,26.27
2018-11-28T00:22:57.073Z,25.23
2018-11-28T00:28:06.480Z,25.53
2018-11-28T00:33:16.090Z,31.10
2018-11-28T00:38:25.768Z,31.90
2018-11-28T00:43:35.509Z,36.77
2018-11-28T00:48:45.001Z,31.70
2018-11-28T00:53:54.350Z,32.73
2018-11-28T00:59:03.748Z,27.13
2018-11-28T01:04:13.278Z,33.93
2018-11-28T01:09:22.798Z,26.63
2018-11-28T01:14:32.446Z,23.07
2018-11-28T01:19:36.929Z,28.90
2018-11-28T01:24:40.718Z,30.57
2018-11-28T01:29:50.068Z,33.90
2018-11-28T01:34:59.455Z,35.30
2018-11-28T01:40:11.418Z,27.20
2018-11-28T01:45:21.817Z,31.03
2018-11-28T01:50:31.438Z,23.77
2018-11-28T01:55:40.803Z,30.90
2018-11-28T02:00:50.495Z,25.53
2018-11-28T02:05:54.878Z,30.60
2018-11-28T04:29:10.543Z,29.10
2018-11-28T04:34:20.030Z,30.27
2018-11-28T04:39:29.644Z,28.60
2018-11-28T04:44:39.239Z,27.57
2018-11-28T04:49:48.852Z,33.50
2018-11-28T04:54:58.462Z,31.87
2018-11-28T05:00:11.551Z,34.97
2018-11-28T05:05:20.948Z,30.47
2018-11-28T05:10:30.790Z,29.90
2018-11-28T05:15:40.198Z,38.37
2018-11-28T05:20:49.523Z,30.90
2018-11-28T05:25:59.178Z,26.53
2018-11-28T05:31:08.746Z,32.47
2018-11-28T05:36:18.278Z,27.17
2018-11-28T05:41:27.935Z,31.80
2018-11-28T05:46:32.266Z,29.17
2018-11-28T05:51:41.892Z,26.33
2018-11-28T05:56:51.393Z,35.23
2018-11-28T06:02:00.849Z,32.47
2018-11-28T06:07:10.433Z,27.90
2018-11-28T06:12:19.807Z,35.50
2018-11-28T06:17:29.447Z,33.70
2018-11-28T06:22:39.122Z,31.37
2018-11-28T06:27:48.487Z,33.17
2018-11-28T06:32:57.828Z,33.97
2018-11-28T06:38:07.402Z,33.70
2018-11-28T06:43:16.728Z,32.07
2018-11-28T06:48:26.110Z,34.13
2018-11-28T06:53:35.636Z,27.07
2018-11-28T06:58:45.242Z,33.50
2018-11-28T07:03:54.902Z,34.80
2018-11-28T07:09:05.074Z,35.77
2018-11-28T07:14:14.350Z,34.50
2018-11-28T07:19:23.990Z,30.20
2018-11-28T07:24:33.419Z,33.27
2018-11-28T07:29:43.025Z,33.17
2018-11-28T07:34:52.370Z,34.77
2018-11-28T07:40:01.732Z,29.90
2018-11-28T07:45:11.792Z,31.00
2018-11-28T07:50:21.505Z,28.37
2018-11-28T07:55:30.970Z,27.40
2018-11-28T08:00:40.334Z,24.50
2018-11-28T08:05:49.862Z,34.80
2018-11-28T08:10:59.262Z,31.10
2018-11-28T08:16:08.819Z,29.47
2018-11-28T08:21:18.200Z,29.00
2018-11-28T08:26:27.638Z,32.30
2018-11-28T08:31:37.256Z,33.33
2018-11-28T08:36:46.730Z,29.30
2018-11-28T08:41:56.090Z,29.90
2018-11-28T08:47:05.640Z,31.83
2018-11-28T08:52:15.138Z,26.57
2018-11-28T08:57:24.701Z,27.63
2018-11-28T09:02:34.387Z,29.13
2018-11-28T09:07:44.032Z,23.73
2018-11-28T09:12:53.482Z,25.93
2018-11-28T09:18:03.007Z,22.10
2018-11-28T09:23:12.534Z,26.30
2018-11-28T09:28:21.945Z,26.23
2018-11-28T09:33:31.483Z,29.10
2018-11-28T09:38:40.842Z,23.33
2018-11-28T09:43:50.225Z,24.47
2018-11-28T09:48:59.607Z,26.50
2018-11-28T09:54:09.166Z,26.47
2018-11-28T09:59:18.514Z,29.50
2018-11-28T10:04:27.885Z,23.43
2018-11-28T10:09:37.306Z,26.63
2018-11-28T10:14:47.379Z,26.40
2018-11-28T10:19:56.822Z,23.83
2018-11-28T10:25:07.549Z,30.27
2018-11-28T10:30:20.273Z,17.53
2018-11-28T10:35:28.718Z,25.03
2018-11-28T10:40:38.317Z,22.47
2018-11-28T10:45:47.681Z,28.00
2018-11-28T10:50:57.418Z,27.40
2018-11-28T10:56:06.975Z,25.70
2018-11-28T11:01:21.486Z,24.00
2018-11-28T11:06:36.410Z,25.70
2018-11-28T11:11:51.185Z,26.20
2018-11-28T11:17:00.890Z,29.00
2018-11-28T11:22:10.574Z,22.80
2018-11-28T11:27:19.911Z,23.17
2018-11-28T11:32:29.394Z,22.10
2018-11-28T11:37:33.244Z,24.60
2018-11-28T11:42:37.030Z,24.80
2018-11-28T11:47:40.883Z,24.07
2018-11-28T11:52:44.830Z,20.87
2018-11-28T11:57:49.179Z,26.30
2018-11-28T12:03:10.634Z,19.17
2018-11-28T12:08:14.414Z,20.67
2018-11-28T12:13:19.068Z,23.43
2018-11-28T12:18:22.878Z,18.87
2018-11-28T12:23:27.500Z,22.60
2018-11-28T12:28:31.325Z,17.33
2018-11-28T12:33:35.158Z,18.37
2018-11-28T12:38:38.966Z,22.07
2018-11-28T12:43:42.791Z,19.93
2018-11-28T12:48:52.158Z,19.73
2018-11-28T12:53:57.255Z,21.67
2018-11-28T12:59:01.144Z,24.70
2018-11-28T13:04:10.722Z,16.07
2018-11-28T13:09:20.039Z,20.93
2018-11-28T13:14:27.130Z,21.07
2018-11-28T13:19:30.949Z,18.60
2018-11-28T13:24:40.274Z,21.37
2018-11-28T13:29:49.645Z,22.47
2018-11-28T13:34:59.310Z,19.67
2018-11-28T13:40:03.352Z,30.90
2018-11-28T13:45:16.894Z,19.13
2018-11-28T13:50:26.708Z,20.10
2018-11-28T13:55:39.720Z,17.50
2018-11-28T14:00:47.358Z,19.07
2018-11-28T14:05:56.713Z,17.87
2018-11-28T14:11:06.613Z,18.70
2018-11-28T14:16:16.090Z,17.27
2018-11-28T14:21:25.429Z,16.37
2018-11-28T14:26:34.826Z,21.73
2018-11-28T14:31:44.323Z,15.63
2018-11-28T14:36:53.975Z,16.57
2018-11-28T14:42:03.377Z,16.93
2018-11-28T14:47:13.677Z,16.83
2018-11-28T14:52:23.013Z,15.77
2018-11-28T14:57:32.625Z,19.90
2018-11-28T15:02:36.383Z,14.47
2018-11-28T15:07:45.994Z,16.57
2018-11-28T15:12:55.495Z,16.50
2018-11-28T15:18:04.914Z,15.60
2018-11-28T15:23:14.422Z,16.20
2018-11-28T15:28:23.946Z,15.67
2018-11-28T15:33:33.575Z,17.33
2018-11-28T15:38:42.978Z,15.80
2018-11-28T15:43:52.478Z,16.77
2018-11-28T15:49:01.926Z,15.27
2018-11-28T15:54:11.299Z,19.93
2018-11-28T15:59:20.955Z,19.23
2018-11-28T16:04:30.500Z,20.00
2018-11-28T16:09:45.508Z,17.30
2018-11-28T16:14:55.126Z,19.60
2018-11-28T16:20:06.841Z,18.03
2018-11-28T16:25:16.294Z,25.03
2018-11-28T16:30:25.791Z,21.73
2018-11-28T16:35:36.127Z,24.80
2018-11-28T16:40:46.815Z,23.67
2018-11-28T16:45:56.134Z,21.93
2018-11-28T16:51:06.457Z,28.33
2018-11-28T16:56:15.858Z,28.93
2018-11-28T17:01:25.239Z,30.63
2018-11-28T17:06:34.810Z,26.57
2018-11-28T17:11:44.133Z,29.47
2018-11-28T17:16:53.730Z,29.83
2018-11-28T17:22:03.250Z,29.23
2018-11-28T17:27:12.907Z,38.13
2018-11-28T17:32:22.523Z,33.33
2018-11-28T17:37:32.933Z,32.73
2018-11-28T17:42:43.035Z,37.57
2018-11-28T17:47:52.578Z,37.00
2018-11-28T17:53:07.363Z,30.67
2018-11-28T17:58:17.515Z,37.73
2018-11-28T18:03:27.041Z,31.00
2018-11-28T18:08:36.545Z,27.67
2018-11-28T18:13:46.396Z,30.67
2018-11-28T18:18:56.143Z,27.33
2018-11-28T18:24:05.756Z,25.37
2018-11-28T18:29:15.458Z,27.07
2018-11-28T18:34:25.318Z,29.27
2018-11-28T18:39:34.859Z,25.40
2018-11-28T18:44:44.338Z,25.87
2018-11-28T18:49:53.955Z,35.47
2018-11-28T18:55:03.684Z,26.13
2018-11-28T19:00:15.683Z,23.10
2018-11-28T19:05:19.647Z,24.53
2018-11-28T19:10:29.890Z,20.80
2018-11-28T19:15:39.310Z,22.73
2018-11-28T19:20:48.915Z,21.97
2018-11-28T19:25:58.276Z,19.57
2018-11-28T19:31:07.700Z,18.20
2018-11-28T19:36:11.539Z,17.50
2018-11-28T19:41:24.458Z,16.30
2018-11-28T19:46:34.083Z,19.47
2018-11-28T19:51:38.193Z,15.07
2018-11-28T19:56:41.966Z,20.57
2018-11-28T20:01:45.819Z,15.70
2018-11-28T20:06:50.477Z,14.73
2018-11-28T20:11:54.289Z,13.37
2018-11-28T20:16:58.047Z,13.37
2018-11-28T20:22:07.447Z,14.70
2018-11-28T20:27:17.760Z,14.63
2018-11-28T20:32:27.365Z,13.73
2018-11-28T20:37:37.164Z,17.03
2018-11-28T20:42:48.030Z,15.13
2018-11-28T20:47:57.556Z,11.63
2018-11-28T20:53:15.198Z,12.57
2018-11-28T20:58:25.762Z,14.67
2018-11-28T21:03:35.323Z,13.87
2018-11-28T21:08:44.805Z,15.30
2018-11-28T21:13:54.208Z,11.80
2018-11-28T21:19:03.602Z,11.10
2018-11-28T21:24:13.306Z,11.57
2018-11-28T21:29:22.705Z,13.43
2018-11-28T21:34:32.119Z,11.17
2018-11-28T21:39:41.506Z,13.53
2018-11-28T21:44:51.072Z,9.10
2018-11-28T21:50:00.722Z,11.87
2018-11-28T21:55:12.077Z,11.33
2018-11-28T22:00:16.896Z,11.33
2018-11-28T22:05:20.788Z,9.67
2018-11-28T22:10:25.450Z,10.63
2018-11-28T22:15:29.225Z,10.50
2018-11-28T22:20:33.156Z,9.87
2018-11-28T22:25:36.936Z,10.80
2018-11-28T22:30:40.697Z,12.83
2018-11-28T22:35:44.536Z,10.80
2018-11-28T22:40:48.522Z,9.50
2018-11-28T22:45:52.359Z,10.33
2018-11-28T22:50:56.569Z,9.20
2018-11-28T22:56:00.495Z,10.07
2018-11-28T23:01:10.426Z,8.23
2018-11-28T23:06:14.322Z,9.70
2018-11-28T23:11:23.670Z,8.70
2018-11-28T23:16:33.722Z,8.87
2018-11-28T23:21:43.360Z,7.83
2018-11-28T23:26:47.223Z,11.23
2018-11-28T23:31:58.535Z,6.57
2018-11-28T23:37:08.174Z,8.97
2018-11-28T23:42:13.667Z,7.63
2018-11-28T23:47:18.919Z,7.30
2018-11-28T23:52:24.014Z,10.03
2018-11-28T23:57:31.250Z,9.07
